sensor_id;sensor_type;location;lat;lon;timestamp;P1;durP1;ratioP1;P2;durP2;ratioP2
1460;SDS011;724;49.910;12.530;2022-12-20T00:01:18;4.25;;;3.97;;
1460;SDS011;724;49.910;12.530;2022-12-20T00:03:47;3.90;;;3.70;;
1460;SDS011;724;49.910;12.530;2022-12-20T00:06:15;3.45;;;3.25;;
1460;SDS011;724;49.910;12.530;2022-12-20T00:08:43;4.03;;;3.83;;
1460;SDS011;724;49.910;12.530;2022-12-20T00:11:10;3.65;;;3.45;;
1460;SDS011;724;49.910;12.530;2022-12-20T00:13:39;3.45;;;3.25;;
1460;SDS011;724;49.910;12.530;2022-12-20T00:16:06;3.80;;;3.60;;
1460;SDS011;724;49.910;12.530;2022-12-20T00:18:34;3.40;;;3.20;;
1460;SDS011;724;49.910;12.530;2022-12-20T00:21:02;3.45;;;3.25;;
1460;SDS011;724;49.910;12.530;2022-12-20T00:23:30;3.42;;;3.22;;
1460;SDS011;724;49.910;12.530;2022-12-20T00:25:59;3.35;;;3.15;;
1460;SDS011;724;49.910;12.530;2022-12-20T00:28:26;3.10;;;2.90;;
1460;SDS011;724;49.910;12.530;2022-12-20T00:30:55;2.95;;;2.75;;
1460;SDS011;724;49.910;12.530;2022-12-20T00:33:21;3.08;;;2.88;;
1460;SDS011;724;49.910;12.530;2022-12-20T00:35:48;2.97;;;2.78;;
1460;SDS011;724;49.910;12.530;2022-12-20T00:38:15;3.20;;;3.00;;
1460;SDS011;724;49.910;12.530;2022-12-20T00:40:42;3.60;;;3.40;;
1460;SDS011;724;49.910;12.530;2022-12-20T00:43:09;3.92;;;3.72;;
1460;SDS011;724;49.910;12.530;2022-12-20T00:45:35;3.67;;;3.47;;
1460;SDS011;724;49.910;12.530;2022-12-20T00:48:04;3.63;;;3.42;;
1460;SDS011;724;49.910;12.530;2022-12-20T00:50:31;3.00;;;2.80;;
1460;SDS011;724;49.910;12.530;2022-12-20T00:52:58;3.50;;;3.30;;
1460;SDS011;724;49.910;12.530;2022-12-20T00:55:24;3.70;;;3.50;;
1460;SDS011;724;49.910;12.530;2022-12-20T00:57:51;3.67;;;3.47;;
1460;SDS011;724;49.910;12.530;2022-12-20T01:00:18;3.70;;;3.50;;
1460;SDS011;724;49.910;12.530;2022-12-20T01:02:45;3.67;;;3.47;;
1460;SDS011;724;49.910;12.530;2022-12-20T01:05:13;3.85;;;3.65;;
1460;SDS011;724;49.910;12.530;2022-12-20T01:07:40;4.05;;;3.85;;
1460;SDS011;724;49.910;12.530;2022-12-20T01:10:07;4.45;;;4.15;;
1460;SDS011;724;49.910;12.530;2022-12-20T01:12:35;4.25;;;3.97;;
1460;SDS011;724;49.910;12.530;2022-12-20T01:15:02;4.88;;;4.57;;
1460;SDS011;724;49.910;12.530;2022-12-20T01:17:29;3.92;;;3.72;;
1460;SDS011;724;49.910;12.530;2022-12-20T01:19:56;4.25;;;3.97;;
1460;SDS011;724;49.910;12.530;2022-12-20T01:22:24;4.35;;;4.05;;
1460;SDS011;724;49.910;12.530;2022-12-20T01:24:51;4.30;;;4.00;;
1460;SDS011;724;49.910;12.530;2022-12-20T01:27:18;4.70;;;4.40;;
1460;SDS011;724;49.910;12.530;2022-12-20T01:29:45;4.15;;;3.92;;
1460;SDS011;724;49.910;12.530;2022-12-20T01:32:11;4.70;;;4.40;;
1460;SDS011;724;49.910;12.530;2022-12-20T01:34:38;4.55;;;4.25;;
1460;SDS011;724;49.910;12.530;2022-12-20T01:37:05;4.90;;;4.60;;
1460;SDS011;724;49.910;12.530;2022-12-20T01:39:33;4.70;;;4.40;;
1460;SDS011;724;49.910;12.530;2022-12-20T01:42:01;4.00;;;3.80;;
1460;SDS011;724;49.910;12.530;2022-12-20T01:47:19;4.40;;;4.10;;
1460;SDS011;724;49.910;12.530;2022-12-20T01:49:47;4.50;;;4.20;;
1460;SDS011;724;49.910;12.530;2022-12-20T01:52:20;4.70;;;4.40;;
1460;SDS011;724;49.910;12.530;2022-12-20T01:54:53;4.30;;;4.00;;
1460;SDS011;724;49.910;12.530;2022-12-20T01:57:24;4.05;;;3.85;;
1460;SDS011;724;49.910;12.530;2022-12-20T01:59:56;3.92;;;3.72;;
1460;SDS011;724;49.910;12.530;2022-12-20T02:02:23;3.50;;;3.30;;
1460;SDS011;724;49.910;12.530;2022-12-20T02:04:51;3.22;;;3.03;;
1460;SDS011;724;49.910;12.530;2022-12-20T02:07:19;3.30;;;3.10;;
1460;SDS011;724;49.910;12.530;2022-12-20T02:09:50;3.20;;;3.00;;
1460;SDS011;724;49.910;12.530;2022-12-20T02:12:20;3.20;;;3.00;;
1460;SDS011;724;49.910;12.530;2022-12-20T02:14:53;3.08;;;2.88;;
1460;SDS011;724;49.910;12.530;2022-12-20T02:17:33;3.20;;;3.00;;
1460;SDS011;724;49.910;12.530;2022-12-20T02:20:24;3.60;;;3.40;;
1460;SDS011;724;49.910;12.530;2022-12-20T02:23:15;3.50;;;3.30;;
1460;SDS011;724;49.910;12.530;2022-12-20T02:26:00;3.45;;;3.25;;
1460;SDS011;724;49.910;12.530;2022-12-20T02:28:44;3.00;;;2.80;;
1460;SDS011;724;49.910;12.530;2022-12-20T02:31:33;3.10;;;2.90;;
1460;SDS011;724;49.910;12.530;2022-12-20T02:34:05;2.63;;;2.42;;
1460;SDS011;724;49.910;12.530;2022-12-20T02:36:34;3.00;;;2.80;;
1460;SDS011;724;49.910;12.530;2022-12-20T02:39:01;2.85;;;2.65;;
1460;SDS011;724;49.910;12.530;2022-12-20T02:41:29;2.90;;;2.70;;
1460;SDS011;724;49.910;12.530;2022-12-20T02:43:59;2.90;;;2.70;;
1460;SDS011;724;49.910;12.530;2022-12-20T02:46:49;3.25;;;3.05;;
1460;SDS011;724;49.910;12.530;2022-12-20T02:49:17;3.08;;;2.88;;
1460;SDS011;724;49.910;12.530;2022-12-20T02:51:47;3.47;;;3.28;;
1460;SDS011;724;49.910;12.530;2022-12-20T02:54:16;3.60;;;3.40;;
1460;SDS011;724;49.910;12.530;2022-12-20T02:56:44;3.90;;;3.70;;
1460;SDS011;724;49.910;12.530;2022-12-20T02:59:17;3.80;;;3.60;;
1460;SDS011;724;49.910;12.530;2022-12-20T03:01:47;4.00;;;3.80;;
1460;SDS011;724;49.910;12.530;2022-12-20T03:04:17;3.15;;;2.95;;
1460;SDS011;724;49.910;12.530;2022-12-20T03:06:56;3.80;;;3.60;;
1460;SDS011;724;49.910;12.530;2022-12-20T03:09:25;3.80;;;3.60;;
1460;SDS011;724;49.910;12.530;2022-12-20T03:11:52;3.45;;;3.25;;
1460;SDS011;724;49.910;12.530;2022-12-20T03:14:19;3.65;;;3.45;;
1460;SDS011;724;49.910;12.530;2022-12-20T03:16:46;3.50;;;3.30;;
1460;SDS011;724;49.910;12.530;2022-12-20T03:19:14;3.20;;;3.00;;
1460;SDS011;724;49.910;12.530;2022-12-20T03:21:41;3.25;;;3.05;;
1460;SDS011;724;49.910;12.530;2022-12-20T03:24:08;2.58;;;2.38;;
1460;SDS011;724;49.910;12.530;2022-12-20T03:26:37;1.73;;;1.63;;
1460;SDS011;724;49.910;12.530;2022-12-20T03:29:04;0.98;;;0.88;;
1460;SDS011;724;49.910;12.530;2022-12-20T03:31:31;0.80;;;0.70;;
1460;SDS011;724;49.910;12.530;2022-12-20T03:33:57;0.70;;;0.60;;
1460;SDS011;724;49.910;12.530;2022-12-20T03:36:26;0.70;;;0.60;;
1460;SDS011;724;49.910;12.530;2022-12-20T03:38:52;0.60;;;0.50;;
1460;SDS011;724;49.910;12.530;2022-12-20T03:41:20;0.57;;;0.47;;
1460;SDS011;724;49.910;12.530;2022-12-20T03:43:47;0.50;;;0.40;;
1460;SDS011;724;49.910;12.530;2022-12-20T03:46:15;0.55;;;0.45;;
1460;SDS011;724;49.910;12.530;2022-12-20T03:48:42;0.85;;;0.75;;
1460;SDS011;724;49.910;12.530;2022-12-20T03:51:09;0.90;;;0.80;;
1460;SDS011;724;49.910;12.530;2022-12-20T03:53:38;1.10;;;1.00;;
1460;SDS011;724;49.910;12.530;2022-12-20T03:56:05;0.93;;;0.82;;
1460;SDS011;724;49.910;12.530;2022-12-20T03:58:32;1.10;;;1.00;;
1460;SDS011;724;49.910;12.530;2022-12-20T04:00:58;0.90;;;0.80;;
1460;SDS011;724;49.910;12.530;2022-12-20T04:03:25;0.75;;;0.65;;
1460;SDS011;724;49.910;12.530;2022-12-20T04:05:52;0.50;;;0.40;;
1460;SDS011;724;49.910;12.530;2022-12-20T04:08:19;0.40;;;0.30;;
1460;SDS011;724;49.910;12.530;2022-12-20T04:10:47;0.50;;;0.40;;
1460;SDS011;724;49.910;12.530;2022-12-20T04:13:31;0.40;;;0.30;;
1460;SDS011;724;49.910;12.530;2022-12-20T04:15:57;0.50;;;0.40;;
1460;SDS011;724;49.910;12.530;2022-12-20T04:18:24;0.45;;;0.35;;
1460;SDS011;724;49.910;12.530;2022-12-20T04:20:51;0.50;;;0.40;;
1460;SDS011;724;49.910;12.530;2022-12-20T04:23:18;0.40;;;0.30;;
1460;SDS011;724;49.910;12.530;2022-12-20T04:25:46;0.40;;;0.30;;
1460;SDS011;724;49.910;12.530;2022-12-20T04:28:13;0.40;;;0.30;;
1460;SDS011;724;49.910;12.530;2022-12-20T04:30:40;0.43;;;0.32;;
1460;SDS011;724;49.910;12.530;2022-12-20T04:33:07;0.40;;;0.30;;
1460;SDS011;724;49.910;12.530;2022-12-20T04:35:33;0.50;;;0.40;;
1460;SDS011;724;49.910;12.530;2022-12-20T04:38:01;0.60;;;0.50;;
1460;SDS011;724;49.910;12.530;2022-12-20T04:40:27;0.70;;;0.60;;
1460;SDS011;724;49.910;12.530;2022-12-20T04:42:56;0.90;;;0.80;;
1460;SDS011;724;49.910;12.530;2022-12-20T04:45:22;0.80;;;0.70;;
1460;SDS011;724;49.910;12.530;2022-12-20T04:47:49;0.90;;;0.80;;
1460;SDS011;724;49.910;12.530;2022-12-20T04:50:16;1.10;;;1.00;;
1460;SDS011;724;49.910;12.530;2022-12-20T04:52:43;1.20;;;1.10;;
1460;SDS011;724;49.910;12.530;2022-12-20T04:55:27;1.33;;;1.23;;
1460;SDS011;724;49.910;12.530;2022-12-20T04:57:55;1.23;;;1.13;;
1460;SDS011;724;49.910;12.530;2022-12-20T05:00:22;1.55;;;1.45;;
1460;SDS011;724;49.910;12.530;2022-12-20T05:02:49;1.48;;;1.38;;
1460;SDS011;724;49.910;12.530;2022-12-20T05:05:16;1.30;;;1.20;;
1460;SDS011;724;49.910;12.530;2022-12-20T05:07:42;1.83;;;1.73;;
1460;SDS011;724;49.910;12.530;2022-12-20T05:10:09;1.67;;;1.58;;
1460;SDS011;724;49.910;12.530;2022-12-20T05:12:36;2.40;;;2.20;;
1460;SDS011;724;49.910;12.530;2022-12-20T05:15:05;1.90;;;1.80;;
1460;SDS011;724;49.910;12.530;2022-12-20T05:17:32;1.80;;;1.70;;
1460;SDS011;724;49.910;12.530;2022-12-20T05:19:59;1.55;;;1.45;;
1460;SDS011;724;49.910;12.530;2022-12-20T05:22:26;1.58;;;1.48;;
1460;SDS011;724;49.910;12.530;2022-12-20T05:25:10;1.48;;;1.38;;
1460;SDS011;724;49.910;12.530;2022-12-20T05:27:54;1.70;;;1.60;;
1460;SDS011;724;49.910;12.530;2022-12-20T05:30:22;1.50;;;1.40;;
1460;SDS011;724;49.910;12.530;2022-12-20T05:32:49;1.30;;;1.20;;
1460;SDS011;724;49.910;12.530;2022-12-20T05:35:16;1.08;;;0.98;;
1460;SDS011;724;49.910;12.530;2022-12-20T05:37:43;0.90;;;0.80;;
1460;SDS011;724;49.910;12.530;2022-12-20T05:40:10;0.80;;;0.70;;
1460;SDS011;724;49.910;12.530;2022-12-20T05:42:37;0.60;;;0.50;;
1460;SDS011;724;49.910;12.530;2022-12-20T05:45:04;0.98;;;0.88;;
1460;SDS011;724;49.910;12.530;2022-12-20T05:47:33;1.00;;;0.90;;
1460;SDS011;724;49.910;12.530;2022-12-20T05:50:00;0.80;;;0.70;;
1460;SDS011;724;49.910;12.530;2022-12-20T05:52:27;1.30;;;1.20;;
1460;SDS011;724;49.910;12.530;2022-12-20T05:54:54;0.90;;;0.80;;
1460;SDS011;724;49.910;12.530;2022-12-20T05:57:21;0.90;;;0.80;;
1460;SDS011;724;49.910;12.530;2022-12-20T05:59:47;0.88;;;0.77;;
1460;SDS011;724;49.910;12.530;2022-12-20T06:02:14;1.05;;;0.95;;
1460;SDS011;724;49.910;12.530;2022-12-20T06:04:42;1.00;;;0.90;;
1460;SDS011;724;49.910;12.530;2022-12-20T06:07:09;1.40;;;1.30;;
1460;SDS011;724;49.910;12.530;2022-12-20T06:09:36;1.10;;;1.00;;
1460;SDS011;724;49.910;12.530;2022-12-20T06:12:03;1.25;;;1.15;;
1460;SDS011;724;49.910;12.530;2022-12-20T06:14:30;1.08;;;0.98;;
1460;SDS011;724;49.910;12.530;2022-12-20T06:16:58;1.17;;;1.08;;
1460;SDS011;724;49.910;12.530;2022-12-20T06:19:25;1.10;;;1.00;;
1460;SDS011;724;49.910;12.530;2022-12-20T06:21:53;1.00;;;0.90;;
1460;SDS011;724;49.910;12.530;2022-12-20T06:24:23;0.90;;;0.80;;
1460;SDS011;724;49.910;12.530;2022-12-20T06:26:53;0.90;;;0.80;;
1460;SDS011;724;49.910;12.530;2022-12-20T06:29:20;1.00;;;0.90;;
1460;SDS011;724;49.910;12.530;2022-12-20T06:31:48;0.88;;;0.77;;
1460;SDS011;724;49.910;12.530;2022-12-20T06:34:15;0.80;;;0.70;;
1460;SDS011;724;49.910;12.530;2022-12-20T06:36:42;0.80;;;0.70;;
1460;SDS011;724;49.910;12.530;2022-12-20T06:39:10;0.98;;;0.88;;
1460;SDS011;724;49.910;12.530;2022-12-20T06:41:38;0.70;;;0.60;;
1460;SDS011;724;49.910;12.530;2022-12-20T06:44:05;0.70;;;0.60;;
1460;SDS011;724;49.910;12.530;2022-12-20T06:46:32;1.13;;;1.02;;
1460;SDS011;724;49.910;12.530;2022-12-20T06:48:59;1.00;;;0.90;;
1460;SDS011;724;49.910;12.530;2022-12-20T06:51:26;1.10;;;1.00;;
1460;SDS011;724;49.910;12.530;2022-12-20T06:53:53;1.02;;;0.93;;
1460;SDS011;724;49.910;12.530;2022-12-20T06:56:21;1.15;;;1.05;;
1460;SDS011;724;49.910;12.530;2022-12-20T06:58:47;1.00;;;0.90;;
1460;SDS011;724;49.910;12.530;2022-12-20T07:01:14;1.20;;;1.10;;
1460;SDS011;724;49.910;12.530;2022-12-20T07:03:41;1.00;;;0.90;;
1460;SDS011;724;49.910;12.530;2022-12-20T07:06:08;0.90;;;0.80;;
1460;SDS011;724;49.910;12.530;2022-12-20T07:08:34;1.20;;;1.10;;
1460;SDS011;724;49.910;12.530;2022-12-20T07:11:04;1.10;;;1.00;;
1460;SDS011;724;49.910;12.530;2022-12-20T07:13:33;1.20;;;1.10;;
1460;SDS011;724;49.910;12.530;2022-12-20T07:16:00;1.30;;;1.20;;
1460;SDS011;724;49.910;12.530;2022-12-20T07:18:28;1.30;;;1.20;;
1460;SDS011;724;49.910;12.530;2022-12-20T07:20:58;1.30;;;1.20;;
1460;SDS011;724;49.910;12.530;2022-12-20T07:23:25;1.15;;;1.05;;
1460;SDS011;724;49.910;12.530;2022-12-20T07:25:52;1.30;;;1.20;;
1460;SDS011;724;49.910;12.530;2022-12-20T07:28:20;1.30;;;1.20;;
1460;SDS011;724;49.910;12.530;2022-12-20T07:30:49;1.30;;;1.20;;
1460;SDS011;724;49.910;12.530;2022-12-20T07:33:16;1.40;;;1.30;;
1460;SDS011;724;49.910;12.530;2022-12-20T07:35:43;1.65;;;1.55;;
1460;SDS011;724;49.910;12.530;2022-12-20T07:38:10;1.63;;;1.52;;
1460;SDS011;724;49.910;12.530;2022-12-20T07:40:38;1.63;;;1.52;;
1460;SDS011;724;49.910;12.530;2022-12-20T07:43:06;1.90;;;1.80;;
1460;SDS011;724;49.910;12.530;2022-12-20T07:45:33;2.30;;;2.10;;
1460;SDS011;724;49.910;12.530;2022-12-20T07:48:01;2.20;;;2.00;;
1460;SDS011;724;49.910;12.530;2022-12-20T07:50:28;1.83;;;1.73;;
1460;SDS011;724;49.910;12.530;2022-12-20T07:52:56;2.10;;;1.95;;
1460;SDS011;724;49.910;12.530;2022-12-20T07:55:23;1.83;;;1.73;;
1460;SDS011;724;49.910;12.530;2022-12-20T07:57:51;2.22;;;2.03;;
1460;SDS011;724;49.910;12.530;2022-12-20T08:00:22;1.70;;;1.60;;
1460;SDS011;724;49.910;12.530;2022-12-20T08:02:51;1.98;;;1.88;;
1460;SDS011;724;49.910;12.530;2022-12-20T08:05:22;1.90;;;1.80;;
1460;SDS011;724;49.910;12.530;2022-12-20T08:07:50;2.20;;;2.00;;
1460;SDS011;724;49.910;12.530;2022-12-20T08:10:19;2.00;;;1.90;;
1460;SDS011;724;49.910;12.530;2022-12-20T08:12:46;2.30;;;2.10;;
1460;SDS011;724;49.910;12.530;2022-12-20T08:15:13;2.20;;;2.00;;
1460;SDS011;724;49.910;12.530;2022-12-20T08:18:00;2.20;;;2.00;;
1460;SDS011;724;49.910;12.530;2022-12-20T08:20:41;2.00;;;1.90;;
1460;SDS011;724;49.910;12.530;2022-12-20T08:23:08;2.78;;;2.58;;
1460;SDS011;724;49.910;12.530;2022-12-20T08:25:34;2.90;;;2.70;;
1460;SDS011;724;49.910;12.530;2022-12-20T08:28:01;2.60;;;2.40;;
1460;SDS011;724;49.910;12.530;2022-12-20T08:30:28;2.67;;;2.47;;
1460;SDS011;724;49.910;12.530;2022-12-20T08:32:55;2.90;;;2.70;;
1460;SDS011;724;49.910;12.530;2022-12-20T08:35:22;3.20;;;3.00;;
1460;SDS011;724;49.910;12.530;2022-12-20T08:37:51;3.33;;;3.13;;
1460;SDS011;724;49.910;12.530;2022-12-20T08:40:18;3.50;;;3.30;;
1460;SDS011;724;49.910;12.530;2022-12-20T08:42:45;3.40;;;3.20;;
1460;SDS011;724;49.910;12.530;2022-12-20T08:45:13;2.90;;;2.70;;
1460;SDS011;724;49.910;12.530;2022-12-20T08:47:39;2.90;;;2.70;;
1460;SDS011;724;49.910;12.530;2022-12-20T08:50:07;2.90;;;2.70;;
1460;SDS011;724;49.910;12.530;2022-12-20T08:52:34;3.10;;;2.90;;
1460;SDS011;724;49.910;12.530;2022-12-20T08:55:02;2.72;;;2.53;;
1460;SDS011;724;49.910;12.530;2022-12-20T08:57:29;3.10;;;2.90;;
1460;SDS011;724;49.910;12.530;2022-12-20T08:59:56;3.05;;;2.85;;
1460;SDS011;724;49.910;12.530;2022-12-20T09:02:35;3.40;;;3.20;;
1460;SDS011;724;49.910;12.530;2022-12-20T09:05:08;3.10;;;2.90;;
1460;SDS011;724;49.910;12.530;2022-12-20T09:07:35;2.70;;;2.50;;
1460;SDS011;724;49.910;12.530;2022-12-20T09:10:04;2.80;;;2.60;;
1460;SDS011;724;49.910;12.530;2022-12-20T09:12:34;2.50;;;2.30;;
1460;SDS011;724;49.910;12.530;2022-12-20T09:15:03;2.70;;;2.50;;
1460;SDS011;724;49.910;12.530;2022-12-20T09:17:30;2.60;;;2.40;;
1460;SDS011;724;49.910;12.530;2022-12-20T09:19:57;2.22;;;2.03;;
1460;SDS011;724;49.910;12.530;2022-12-20T09:22:24;2.50;;;2.30;;
1460;SDS011;724;49.910;12.530;2022-12-20T09:24:50;2.70;;;2.50;;
1460;SDS011;724;49.910;12.530;2022-12-20T09:27:18;2.60;;;2.40;;
1460;SDS011;724;49.910;12.530;2022-12-20T09:29:46;2.38;;;2.17;;
1460;SDS011;724;49.910;12.530;2022-12-20T09:32:13;1.95;;;1.85;;
1460;SDS011;724;49.910;12.530;2022-12-20T09:34:39;1.48;;;1.38;;
1460;SDS011;724;49.910;12.530;2022-12-20T09:37:06;1.30;;;1.20;;
1460;SDS011;724;49.910;12.530;2022-12-20T09:39:33;1.15;;;1.05;;
1460;SDS011;724;49.910;12.530;2022-12-20T09:42:00;1.00;;;0.90;;
1460;SDS011;724;49.910;12.530;2022-12-20T09:44:35;1.20;;;1.10;;
1460;SDS011;724;49.910;12.530;2022-12-20T09:47:06;0.90;;;0.80;;
1460;SDS011;724;49.910;12.530;2022-12-20T09:49:40;1.20;;;1.10;;
1460;SDS011;724;49.910;12.530;2022-12-20T09:52:18;1.10;;;1.00;;
1460;SDS011;724;49.910;12.530;2022-12-20T09:54:56;1.27;;;1.17;;
1460;SDS011;724;49.910;12.530;2022-12-20T09:57:39;1.40;;;1.30;;
1460;SDS011;724;49.910;12.530;2022-12-20T10:00:19;1.55;;;1.45;;
1460;SDS011;724;49.910;12.530;2022-12-20T10:02:46;1.65;;;1.55;;
1460;SDS011;724;49.910;12.530;2022-12-20T10:05:14;2.00;;;1.90;;
1460;SDS011;724;49.910;12.530;2022-12-20T10:07:45;2.42;;;2.22;;
1460;SDS011;724;49.910;12.530;2022-12-20T10:10:26;2.15;;;1.98;;
1460;SDS011;724;49.910;12.530;2022-12-20T10:16:50;2.25;;;2.05;;
1460;SDS011;724;49.910;12.530;2022-12-20T10:19:29;1.88;;;1.77;;
1460;SDS011;724;49.910;12.530;2022-12-20T10:22:08;1.75;;;1.65;;
1460;SDS011;724;49.910;12.530;2022-12-20T10:24:40;1.80;;;1.70;;
1460;SDS011;724;49.910;12.530;2022-12-20T10:27:13;1.70;;;1.60;;
1460;SDS011;724;49.910;12.530;2022-12-20T10:33:17;1.90;;;1.80;;
1460;SDS011;724;49.910;12.530;2022-12-20T10:35:46;1.98;;;1.88;;
1460;SDS011;724;49.910;12.530;2022-12-20T10:38:14;1.77;;;1.67;;
1460;SDS011;724;49.910;12.530;2022-12-20T10:40:43;2.00;;;1.90;;
1460;SDS011;724;49.910;12.530;2022-12-20T10:43:13;1.90;;;1.80;;
1460;SDS011;724;49.910;12.530;2022-12-20T10:45:43;2.20;;;2.00;;
1460;SDS011;724;49.910;12.530;2022-12-20T10:48:24;1.70;;;1.60;;
1460;SDS011;724;49.910;12.530;2022-12-20T10:50:54;1.60;;;1.50;;
1460;SDS011;724;49.910;12.530;2022-12-20T10:53:22;2.00;;;1.90;;
1460;SDS011;724;49.910;12.530;2022-12-20T10:55:51;2.05;;;1.92;;
1460;SDS011;724;49.910;12.530;2022-12-20T10:58:30;1.92;;;1.83;;
1460;SDS011;724;49.910;12.530;2022-12-20T11:01:04;1.77;;;1.67;;
1460;SDS011;724;49.910;12.530;2022-12-20T11:03:49;1.55;;;1.45;;
1460;SDS011;724;49.910;12.530;2022-12-20T11:06:22;1.80;;;1.70;;
1460;SDS011;724;49.910;12.530;2022-12-20T11:08:51;1.60;;;1.50;;
1460;SDS011;724;49.910;12.530;2022-12-20T11:11:18;1.50;;;1.40;;
1460;SDS011;724;49.910;12.530;2022-12-20T11:13:46;1.58;;;1.48;;
1460;SDS011;724;49.910;12.530;2022-12-20T11:16:23;1.80;;;1.70;;
1460;SDS011;724;49.910;12.530;2022-12-20T11:19:09;1.85;;;1.75;;
1460;SDS011;724;49.910;12.530;2022-12-20T11:21:52;1.83;;;1.73;;
1460;SDS011;724;49.910;12.530;2022-12-20T11:24:27;1.83;;;1.73;;
1460;SDS011;724;49.910;12.530;2022-12-20T11:27:02;1.73;;;1.63;;
1460;SDS011;724;49.910;12.530;2022-12-20T11:32:32;2.30;;;2.10;;
1460;SDS011;724;49.910;12.530;2022-12-20T11:35:21;2.40;;;2.20;;
1460;SDS011;724;49.910;12.530;2022-12-20T11:37:57;2.20;;;2.00;;
1460;SDS011;724;49.910;12.530;2022-12-20T11:40:33;2.58;;;2.38;;
1460;SDS011;724;49.910;12.530;2022-12-20T11:43:11;2.70;;;2.50;;
1460;SDS011;724;49.910;12.530;2022-12-20T11:46:03;3.00;;;2.80;;
1460;SDS011;724;49.910;12.530;2022-12-20T11:48:47;2.80;;;2.60;;
1460;SDS011;724;49.910;12.530;2022-12-20T11:51:37;2.50;;;2.30;;
1460;SDS011;724;49.910;12.530;2022-12-20T11:54:13;2.38;;;2.17;;
1460;SDS011;724;49.910;12.530;2022-12-20T11:56:47;2.20;;;2.00;;
1460;SDS011;724;49.910;12.530;2022-12-20T11:59:17;2.20;;;2.00;;
1460;SDS011;724;49.910;12.530;2022-12-20T12:01:52;2.50;;;2.30;;
1460;SDS011;724;49.910;12.530;2022-12-20T12:04:26;2.50;;;2.30;;
1460;SDS011;724;49.910;12.530;2022-12-20T12:10:19;3.00;;;2.80;;
1460;SDS011;724;49.910;12.530;2022-12-20T12:12:56;3.35;;;3.15;;
1460;SDS011;724;49.910;12.530;2022-12-20T12:15:32;3.63;;;3.42;;
1460;SDS011;724;49.910;12.530;2022-12-20T12:18:05;3.50;;;3.30;;
1460;SDS011;724;49.910;12.530;2022-12-20T12:25:27;3.75;;;3.55;;
1460;SDS011;724;49.910;12.530;2022-12-20T12:27:24;2.95;;;2.75;;
1460;SDS011;724;49.910;12.530;2022-12-20T12:29:53;2.78;;;2.58;;
1460;SDS011;724;49.910;12.530;2022-12-20T12:32:24;2.55;;;2.35;;
1460;SDS011;724;49.910;12.530;2022-12-20T12:35:00;2.55;;;2.35;;
1460;SDS011;724;49.910;12.530;2022-12-20T12:37:53;1.90;;;1.80;;
1460;SDS011;724;49.910;12.530;2022-12-20T12:40:38;1.58;;;1.48;;
1460;SDS011;724;49.910;12.530;2022-12-20T12:43:34;1.50;;;1.40;;
1460;SDS011;724;49.910;12.530;2022-12-20T12:46:10;1.20;;;1.10;;
1460;SDS011;724;49.910;12.530;2022-12-20T12:48:41;1.20;;;1.10;;
1460;SDS011;724;49.910;12.530;2022-12-20T12:51:11;1.30;;;1.20;;
1460;SDS011;724;49.910;12.530;2022-12-20T12:53:41;1.10;;;1.00;;
1460;SDS011;724;49.910;12.530;2022-12-20T13:01:49;1.40;;;1.30;;
1460;SDS011;724;49.910;12.530;2022-12-20T13:04:27;1.60;;;1.50;;
1460;SDS011;724;49.910;12.530;2022-12-20T13:06:57;1.83;;;1.73;;
1460;SDS011;724;49.910;12.530;2022-12-20T13:09:38;1.45;;;1.35;;
1460;SDS011;724;49.910;12.530;2022-12-20T13:21:40;1.88;;;1.77;;
1460;SDS011;724;49.910;12.530;2022-12-20T13:24:52;1.65;;;1.55;;
1460;SDS011;724;49.910;12.530;2022-12-20T13:34:51;1.40;;;1.30;;
1460;SDS011;724;49.910;12.530;2022-12-20T13:37:55;0.90;;;0.80;;
1460;SDS011;724;49.910;12.530;2022-12-20T13:40:41;0.60;;;0.50;;
1460;SDS011;724;49.910;12.530;2022-12-20T13:43:36;0.50;;;0.40;;
1460;SDS011;724;49.910;12.530;2022-12-20T13:46:30;0.50;;;0.40;;
1460;SDS011;724;49.910;12.530;2022-12-20T13:49:11;0.47;;;0.38;;
1460;SDS011;724;49.910;12.530;2022-12-20T13:55:01;0.30;;;0.20;;
1460;SDS011;724;49.910;12.530;2022-12-20T13:57:50;0.30;;;0.20;;
1460;SDS011;724;49.910;12.530;2022-12-20T14:00:27;0.30;;;0.20;;
1460;SDS011;724;49.910;12.530;2022-12-20T14:03:08;0.22;;;0.13;;
1460;SDS011;724;49.910;12.530;2022-12-20T14:05:41;0.20;;;0.10;;
1460;SDS011;724;49.910;12.530;2022-12-20T14:08:12;0.20;;;0.10;;
1460;SDS011;724;49.910;12.530;2022-12-20T14:10:41;0.20;;;0.10;;
1460;SDS011;724;49.910;12.530;2022-12-20T14:13:14;0.20;;;0.10;;
1460;SDS011;724;49.910;12.530;2022-12-20T14:15:45;0.20;;;0.10;;
1460;SDS011;724;49.910;12.530;2022-12-20T14:18:15;0.20;;;0.10;;
1460;SDS011;724;49.910;12.530;2022-12-20T14:20:46;0.20;;;0.10;;
1460;SDS011;724;49.910;12.530;2022-12-20T14:23:24;0.00;;;0.00;;
1460;SDS011;724;49.910;12.530;2022-12-20T14:26:14;0.00;;;0.00;;
1460;SDS011;724;49.910;12.530;2022-12-20T14:29:09;0.00;;;0.00;;
1460;SDS011;724;49.910;12.530;2022-12-20T14:31:47;0.00;;;0.00;;
1460;SDS011;724;49.910;12.530;2022-12-20T14:34:35;0.10;;;0.05;;
1460;SDS011;724;49.910;12.530;2022-12-20T14:39:55;0.20;;;0.10;;
1460;SDS011;724;49.910;12.530;2022-12-20T14:42:25;0.10;;;0.10;;
1460;SDS011;724;49.910;12.530;2022-12-20T14:48:12;0.10;;;0.10;;
1460;SDS011;724;49.910;12.530;2022-12-20T14:54:15;0.25;;;0.15;;
1460;SDS011;724;49.910;12.530;2022-12-20T14:57:09;0.00;;;0.00;;
1460;SDS011;724;49.910;12.530;2022-12-20T14:59:54;0.10;;;0.05;;
1460;SDS011;724;49.910;12.530;2022-12-20T15:03:10;0.20;;;0.10;;
1460;SDS011;724;49.910;12.530;2022-12-20T15:06:01;0.00;;;0.00;;
1460;SDS011;724;49.910;12.530;2022-12-20T15:08:28;0.00;;;0.00;;
1460;SDS011;724;49.910;12.530;2022-12-20T15:10:58;0.00;;;0.00;;
1460;SDS011;724;49.910;12.530;2022-12-20T15:13:30;0.00;;;0.00;;
1460;SDS011;724;49.910;12.530;2022-12-20T15:15:59;0.00;;;0.00;;
1460;SDS011;724;49.910;12.530;2022-12-20T15:18:28;0.00;;;0.00;;
1460;SDS011;724;49.910;12.530;2022-12-20T15:23:44;0.00;;;0.00;;
1460;SDS011;724;49.910;12.530;2022-12-20T15:26:13;0.00;;;0.00;;
1460;SDS011;724;49.910;12.530;2022-12-20T15:28:42;0.00;;;0.00;;
1460;SDS011;724;49.910;12.530;2022-12-20T15:31:09;0.20;;;0.10;;
1460;SDS011;724;49.910;12.530;2022-12-20T15:33:37;0.05;;;0.03;;
1460;SDS011;724;49.910;12.530;2022-12-20T15:36:05;0.10;;;0.10;;
1460;SDS011;724;49.910;12.530;2022-12-20T15:38:32;0.08;;;0.08;;
1460;SDS011;724;49.910;12.530;2022-12-20T15:40:59;0.13;;;0.10;;
1460;SDS011;724;49.910;12.530;2022-12-20T15:43:30;0.10;;;0.05;;
1460;SDS011;724;49.910;12.530;2022-12-20T15:46:04;0.00;;;0.00;;
1460;SDS011;724;49.910;12.530;2022-12-20T15:48:30;0.00;;;0.00;;
1460;SDS011;724;49.910;12.530;2022-12-20T15:50:57;0.10;;;0.10;;
1460;SDS011;724;49.910;12.530;2022-12-20T15:53:26;0.10;;;0.10;;
1460;SDS011;724;49.910;12.530;2022-12-20T15:55:56;0.03;;;0.03;;
1460;SDS011;724;49.910;12.530;2022-12-20T15:58:25;0.13;;;0.10;;
1460;SDS011;724;49.910;12.530;2022-12-20T16:00:53;0.00;;;0.00;;
1460;SDS011;724;49.910;12.530;2022-12-20T16:03:24;0.25;;;0.15;;
1460;SDS011;724;49.910;12.530;2022-12-20T16:05:54;0.50;;;0.43;;
1460;SDS011;724;49.910;12.530;2022-12-20T16:08:21;0.17;;;0.10;;
1460;SDS011;724;49.910;12.530;2022-12-20T16:10:48;0.43;;;0.35;;
1460;SDS011;724;49.910;12.530;2022-12-20T16:13:19;0.10;;;0.10;;
1460;SDS011;724;49.910;12.530;2022-12-20T16:15:47;0.10;;;0.10;;
1460;SDS011;724;49.910;12.530;2022-12-20T16:18:14;0.22;;;0.17;;
1460;SDS011;724;49.910;12.530;2022-12-20T16:20:43;0.35;;;0.25;;
1460;SDS011;724;49.910;12.530;2022-12-20T16:23:11;0.15;;;0.13;;
1460;SDS011;724;49.910;12.530;2022-12-20T16:25:42;0.20;;;0.20;;
1460;SDS011;724;49.910;12.530;2022-12-20T16:28:09;0.13;;;0.10;;
1460;SDS011;724;49.910;12.530;2022-12-20T16:30:36;0.10;;;0.10;;
1460;SDS011;724;49.910;12.530;2022-12-20T16:33:03;0.20;;;0.10;;
1460;SDS011;724;49.910;12.530;2022-12-20T16:35:31;0.00;;;0.00;;
1460;SDS011;724;49.910;12.530;2022-12-20T16:38:01;0.00;;;0.00;;